Tiempo atmosférico en la estación meteorológica de Areso, Navarra (520 m.)



Fecha
DESCASC
Temp. máxima en grados centígrados (hora)
DESCASC
Temp. mínima en grados centígrados (hora)
DESCASC
Temp. media en grados centígrados
DESCASC
Racha de viento máxima en m/sg (hora)
DESCASC
Velocidad máxima media en intervalos de 10 minutos(hora)
DESCASC
Precipitaciones diarias en mm
DESCASC
Precipitaciones de 00:00 a 06:00 en mm
DESCASC
Precipitaciones de 06:00 a 12:00 en mm
DESCASC
Precipitaciones de 12:00 a 18:00 en mm
DESCASC
Precipitaciones de 18:00 a 24:00 en mm
DESCASC
18-02-2018 7.3 (19:00) 4.1 (05:50) 5.7 9.17 (19:30) 3.06 (19:00) 22.2 1.4 0.4 9.2 11.2
17-02-2018 11.9 (00:00) 5.1 (20:10) 8.5 8.89 (03:20) 2.5 (10:50) 15.6 5.6 5 3.8 1.2
16-02-2018 17.5 (13:30) 8.1 (06:50) 12.8 8.33 (15:50) 4.17 (15:50) 0.2 0.2 0 0 0
15-02-2018 14.2 (13:00) 4.9 (00:00) 9.5 7.5 (13:20) 3.89 (13:20) 0 0 0 0 0
14-02-2018 8 (14:20) 2.5 (00:00) 5.3 3.33 (13:00) 1.39 (13:00) 10.4 2.2 2.6 5.6 0
13-02-2018 5 (15:50) -2 (-00:0) 1.5 10.83 (10:30) 6.11 (10:30) 8.2 0 0 1 7.2
12-02-2018 4.9 (14:50) -1.4 (-00:0) 1.8 6.94 (02:20) 3.33 (02:20) 12.6 6.8 5.6 0.2 0
11-02-2018 8.2 (16:00) 2 (00:00) 5.1 8.89 (21:20) 3.33 (21:10) 25.8 6.4 11 5.8 2.6
10-02-2018 5 (16:30) 0.4 (00:00) 2.7 5.28 (03:50) 1.94 (03:50) 7.4 1.4 4.4 0.2 1.4
09-02-2018 4 (13:30) -4.3 (-00:0) -0.2 8.33 (17:20) 2.22 (17:20) 15.8 0 0 9.6 6.2
08-02-2018 2.1 (17:20) -3.1 (-00:0) -0.5 2.5 (14:50) 0.83 (14:20) 4 3.8 0.2 0 0
07-02-2018 3.2 (13:10) -1.1 (-00:0) 1.1 3.61 (17:20) 1.39 (17:20) 5.8 1.8 0 2 2
06-02-2018 3.1 (11:20) -0.1 (00:00) 1.5 5.83 (00:40) 1.94 (01:10) 7.4 2 0 3.2 2.2
05-02-2018 1.9 (08:00) 0.8 (00:00) 1.3 4.17 (12:40) 1.39 (09:00) 9.4 2.8 1 4.4 1.2
04-02-2018 4.2 (14:40) 0.2 (00:00) 2.2 2.22 (16:00) 0.83 (17:10) 10.8 4.8 1.4 4.4 0.2
03-02-2018 4.5 (16:10) 0.1 (00:00) 2.3 8.33 (16:10) 3.61 (16:30) 41 7.2 5.8 11.6 16.4
02-02-2018 4 (13:10) -0.2 (00:00) 1.9 3.33 (21:20) 1.39 (21:20) 19 6.4 2.6 0.8 9.2
01-02-2018 7 (05:00) 0 (00:00) 3.5 7.22 (12:00) 3.06 (03:40) 32 3.8 5.4 13.2 9.6
31-01-2018 14.9 (15:30) 2.1 (00:00) 8.5 6.39 (11:30) 3.33 (11:20) 0 0 0 0 0
30-01-2018 11.4 (16:40) 1.2 (00:00) 6.3 3.33 (15:20) 1.39 (13:20) 0 0 0 0 0
29-01-2018 15.2 (13:50) 2.2 (00:00) 8.7 5.28 (16:00) 1.67 (16:00) 0 0 0 0 0
28-01-2018 11.3 (16:20) -0.8 (-00:0) 5.3 3.89 (15:10) 1.39 (15:10) 0 0 0 0 0
27-01-2018 6.2 (16:20) 2.9 (00:00) 4.5 9.17 (01:20) 3.06 (02:30) 14.8 12.4 2.2 0.2 0
26-01-2018 6.3 (14:00) 2.7 (00:00) 4.5 9.72 (23:59) 3.06 (21:50) 44 5 13.4 6.6 19
25-01-2018 9.9 (00:00) 3.6 (00:00) 6.7 13.06 (06:40) 7.5 (06:40) 19 0 0 11.6 7.4
24-01-2018 14.2 (16:10) 6.3 (00:00) 10.3 16.94 (08:40) 10.28 (06:30) 0 0 0 0 0
23-01-2018 11.6 (13:40) 8.3 (00:00) 10 3.33 (14:10) 1.11 (14:20) 0.2 0 0 0.2 0

Gráficas

Temp. máximas Temp. mínimas Temp. medias Precipitaciones Rachas de viento máximas Velocidades máximas media en intervalos de 10 minutos

Datos horarios

Fecha y hora oficial Temperatura (ºC) Velocidad del viento (km/h) Dirección del viento Racha (km/h) Dirección de racha Precipitación (mm) Presión (hPa) Tendencia (hPa) Humedad (%)
2018-02-21 23:00:00 2.7 6 Nordeste 21 Este 0 -- -- 86
2018-02-21 22:00:00 3 4 Este 16 Norte 0 -- -- 85
2018-02-21 21:00:00 2.9 4 Este 17 Norte 0 -- -- 83
2018-02-21 20:00:00 2.8 4 Sur 20 Sur 0 -- -- 85
2018-02-21 19:00:00 2.8 4 Sur 16 Sur 0 -- -- 84
2018-02-21 18:00:00 3.3 3 Este 26 Noroeste 0 -- -- 82
2018-02-21 17:00:00 4.4 3 Este 13 Este 0 -- -- 78
2018-02-21 16:00:00 5.6 5 Sudoeste 18 Este 0 -- -- 78
2018-02-21 15:00:00 5.6 6 Nordeste 18 Sudeste 0 -- -- 75
2018-02-21 14:00:00 5.5 6 Sudeste 21 Noroeste 0 -- -- 74
2018-02-21 13:00:00 3.4 5 Norte 21 Este 0 -- -- 86
2018-02-21 12:00:00 2.6 4 Nordeste 23 Este 0 -- -- 93
2018-02-21 11:00:00 2.6 6 Nordeste 30 Nordeste 1.2 -- -- 96
2018-02-21 10:00:00 3.2 6 Sudeste 26 Norte 1 -- -- 96
2018-02-21 09:00:00 3 4 Este 23 Este 1.6 -- -- 99
2018-02-21 08:00:00 2.9 5 Sudeste 40 Nordeste 0.8 -- -- 97
2018-02-21 07:00:00 3.5 6 Este 29 Norte 0.8 -- -- 94
2018-02-21 06:00:00 4 8 Sur 48 Este 0.2 -- -- 88
2018-02-21 05:00:00 4.1 15 Nordeste 51 Nordeste 0.2 -- -- 95
2018-02-21 04:00:00 4.4 10 Este 37 Nordeste 1.6 -- -- 98
2018-02-21 03:00:00 5.2 14 Este 45 Nordeste 5.4 -- -- 99
2018-02-21 02:00:00 6.2 7 Sudeste 22 Este 0.6 -- -- 97
2018-02-21 01:00:00 6.2 10 Este 25 Este 1.8 -- -- 99
2018-02-21 00:00:00 6.6 8 Sur 27 Sudoeste 0.8 -- -- 99
2018-02-20 23:00:00 6.7 9 Sur 19 Norte 3 -- -- 100
2018-02-20 22:00:00 6.6 4 Sudeste 18 Sudeste 1.6 -- -- 100
2018-02-20 21:00:00 6.4 5 Sur 14 Sudeste 1.4 -- -- 100
2018-02-20 20:00:00 6.2 4 Sudeste 28 Este 1.6 -- -- 99
2018-02-20 19:00:00 6.6 5 Sudeste 19 Este 1.2 -- -- 99
2018-02-20 18:00:00 6.6 4 Sudeste 23 Sudoeste 1.2 -- -- 99
2018-02-20 17:00:00 6.5 4 Sudoeste 37 Este 1.6 -- -- 99
2018-02-20 16:00:00 6.7 5 Sudeste 21 Sudeste 1 -- -- 96
2018-02-20 15:00:00 6.7 7 Sur 25 Oeste 2 -- -- 98
2018-02-20 14:00:00 7.1 7 Noroeste 32 Oeste 1.2 -- -- 93
2018-02-20 13:00:00 7.1 7 Sur 25 Norte 1.2 -- -- 98
2018-02-20 12:00:00 7.2 4 Sur 17 Este 1.2 -- -- 99
2018-02-20 11:00:00 7 7 Noroeste 21 Sudeste 1.8 -- -- 97
2018-02-20 10:00:00 7.3 5 Sur 24 Oeste 1.8 -- -- 100
2018-02-20 09:00:00 7.2 5 Sudeste 19 Sudeste 2.2 -- -- 100
2018-02-20 08:00:00 7.5 5 Sur 23 Norte 2 -- -- 100
2018-02-20 07:00:00 7.8 8 Sur 26 Este 5.6 -- -- 100
2018-02-20 06:00:00 8 9 Sur 20 Sur 3.2 -- -- 100
2018-02-20 05:00:00 8.1 5 Sur 20 Sur 4.6 -- -- 100
2018-02-20 04:00:00 8.2 7 Sur 19 Sur 3.8 -- -- 100
2018-02-20 03:00:00 8.4 4 Sur 21 Sudeste 3.4 -- -- 100
2018-02-20 02:00:00 8.4 5 Sudeste 21 Nordeste 3.2 -- -- 100
2018-02-20 01:00:00 8.5 3 Sur 20 Este 2.6 -- -- 100
2018-02-20 00:00:00 8.4 4 Sudeste 24 Este 2.6 -- -- 100
2018-02-19 23:00:00 8.4 5 Este 19 Sur 5.2 -- -- 100
2018-02-19 22:00:00 8.5 6 Sur 17 Este 3.6 -- -- 100
2018-02-19 21:00:00 8.4 4 Sudeste 14 Sudeste 4 -- -- 100
2018-02-19 20:00:00 8.3 5 Sur 15 Norte 5.4 -- -- 100
2018-02-19 19:00:00 8.3 2 Sudeste 13 Este 3.2 -- -- 100
2018-02-19 18:00:00 8.3 4 Sudoeste 22 Nordeste 2 -- -- 100
2018-02-19 17:00:00 8.5 4 Este 23 Nordeste 4.4 -- -- 100
2018-02-19 16:00:00 8.7 4 Sur 17 Oeste 2.2 -- -- 100
2018-02-19 15:00:00 8.9 3 Sur 12 Oeste 2.4 -- -- 100
2018-02-19 14:00:00 8.9 2 Oeste 13 Sudeste 2.4 -- -- 100
2018-02-19 13:00:00 8.7 3 Sudoeste 10 Este 2.4 -- -- 100
2018-02-19 12:00:00 8.6 2 Sudoeste 13 Sur 3.4 -- -- 100
2018-02-19 11:00:00 8.2 2 Oeste 17 Sur 3 -- -- 100
2018-02-19 10:00:00 7.7 3 Sudoeste 8 Oeste 3.2 -- -- 100
2018-02-19 09:00:00 7.1 0 Calma 5 Oeste 3.4 -- -- 100
2018-02-19 08:00:00 7 0 Calma 4 Oeste 2.2 -- -- 100
2018-02-19 07:00:00 7.1 0 Calma 6 Noroeste 2.2 -- -- 100
2018-02-19 06:00:00 7.2 4 Oeste 10 Oeste 1.6 -- -- 100
2018-02-19 05:00:00 7.2 3 Oeste 10 Oeste 1 -- -- 100
2018-02-19 04:00:00 6.9 0 Calma 8 Noroeste 1 -- -- 100
2018-02-19 03:00:00 7.2 4 Oeste 15 Noroeste 1.4 -- -- 99
2018-02-19 02:00:00 7 4 Sur 16 Sudeste 0.8 -- -- 100
2018-02-19 01:00:00 6.8 0 Calma 12 Noroeste 1.6 -- -- 100
2018-02-19 00:00:00 6.7 2 Norte 17 Norte 1.6 -- -- 99
2018-02-18 23:00:00 6.8 2 Sur 16 Oeste 1 -- -- 99
2018-02-18 22:00:00 6.8 2 Sudeste 11 Nordeste 1.6 -- -- 100
2018-02-18 21:00:00 6.9 4 Sudeste 19 Oeste 2.6 -- -- 99
2018-02-18 20:00:00 7.2 4 Sur 33 Noroeste 2 -- -- 96
2018-02-18 19:00:00 7.3 11 Oeste 32 Oeste 2.4 -- -- 97
2018-02-18 18:00:00 6.9 3 Sudoeste 18 Noroeste 2.8 -- -- 100
2018-02-18 17:00:00 6.6 3 Sur 12 Sudeste 2.6 -- -- 100
2018-02-18 16:00:00 6.6 5 Sudoeste 9 Este 1.8 -- -- 100
2018-02-18 15:00:00 6.7 2 Oeste 9 Norte 1.6 -- -- 100
2018-02-18 14:00:00 6.6 2 Sur 11 Noroeste 0.4 -- -- 99
2018-02-18 13:00:00 6.7 2 Sudoeste 7 Sudoeste 0 -- -- 99
2018-02-18 12:00:00 6.4 3 Sur 9 Sur 0 -- -- 100
2018-02-18 11:00:00 6 0 Calma 6 Este 0.2 -- -- 100
2018-02-18 10:00:00 5.9 3 Este 7 Sudeste 0 -- -- 100
2018-02-18 09:00:00 4.9 0 Calma 4 Nordeste 0 -- -- 100
2018-02-18 08:00:00 4.6 0 Calma 6 Este 0.2 -- -- 100
2018-02-18 07:00:00 4.4 2 Sur 6 Sudeste 0 -- -- 100
2018-02-18 06:00:00 4.2 0 Calma 5 Sudeste 0 -- -- 100
2018-02-18 05:00:00 4.6 0 Calma 8 Sudeste 0 -- -- 100
2018-02-18 04:00:00 4.6 3 Este 10 Este 0 -- -- 100
2018-02-18 03:00:00 4.6 0 Calma 14 Este 0.2 -- -- 99
2018-02-18 02:00:00 5.1 3 Sur 11 Este 1 -- -- 99
2018-02-18 01:00:00 5.4 2 Sudeste 7 Sudoeste 0.2 -- -- 97
2018-02-18 00:00:00 5.5 2 Sur 13 Oeste 0 -- -- 95
2018-02-17 23:00:00 5.5 2 Sudeste 12 Sudeste 0 -- -- 98
2018-02-17 22:00:00 5.6 0 Calma 12 Sur 0 -- -- 98
2018-02-17 21:00:00 5.3 4 Sudeste 12 Este 0 -- -- 99
2018-02-17 20:00:00 5.2 2 Este 10 Este 0.4 -- -- 98
2018-02-17 19:00:00 6 3 Este 10 Sudeste 0.8 -- -- 96
2018-02-17 18:00:00 6.3 3 Sudoeste 20 Norte 1 -- -- 94
2018-02-17 17:00:00 8 3 Sudeste 24 Este 0.6 -- -- 91
2018-02-17 16:00:00 7.3 5 Este 22 Este 0.6 -- -- 91
2018-02-17 15:00:00 7.5 4 Este 22 Sur 0.4 -- -- 94
2018-02-17 14:00:00 7.3 4 Sur 15 Sudoeste 0.8 -- -- 93
2018-02-17 13:00:00 8.4 5 Sudeste 15 Nordeste 0.4 -- -- 95
2018-02-17 12:00:00 6.5 3 Este 16 Norte 1 -- -- 98
2018-02-17 11:00:00 6.6 4 Sudeste 19 Noroeste 0.6 -- -- 98
2018-02-17 10:00:00 6.2 0 Calma 8 Este 0.2 -- -- 100
2018-02-17 09:00:00 5.8 2 Sudeste 5 Sur 0.8 -- -- 100
2018-02-17 08:00:00 5.6 0 Calma 20 Norte 1 -- -- 100
2018-02-17 07:00:00 6.5 2 Sudoeste 17 Sudoeste 1.4 -- -- 100
2018-02-17 06:00:00 6.7 3 Sudeste 18 Sudeste 1.6 -- -- 100
2018-02-17 05:00:00 7.7 6 Este 18 Este 2.4 -- -- 99
2018-02-17 04:00:00 8.8 5 Sudoeste 32 Nordeste 1.6 -- -- 98
2018-02-17 03:00:00 10.6 6 Norte 25 Norte 0 -- -- 95
2018-02-17 02:00:00 10.9 3 Nordeste 12 Este 0 -- -- 92
2018-02-17 01:00:00 11.7 0 Calma 5 Noroeste 0 -- -- 86
2018-02-17 00:00:00 11.9 0 Calma 6 Noroeste 0 -- -- 84
2018-02-16 23:00:00 12.2 0 Calma 10 Oeste 0 -- -- 83
2018-02-16 22:00:00 12.6 3 Sudoeste 9 Sudoeste 0 -- -- 80
2018-02-16 21:00:00 12.6 5 Sudoeste 19 Oeste 0 -- -- 78
2018-02-16 20:00:00 13.3 3 Oeste 9 Oeste 0 -- -- 75
2018-02-16 19:00:00 14.2 3 Oeste 10 Oeste 0 -- -- 72
2018-02-16 18:00:00 15.1 4 Sur 21 Sur 0 -- -- 69
2018-02-16 17:00:00 15.9 7 Sur 25 Sur 0 -- -- 67
2018-02-16 16:00:00 17 14 Sur 30 Sudeste 0 -- -- 60
2018-02-16 15:00:00 17.5 12 Sur 22 Sur 0 -- -- 61
2018-02-16 14:00:00 16.7 8 Sudoeste 18 Sudoeste 0 -- -- 65
2018-02-16 13:00:00 16.2 7 Sur 19 Sudeste 0 -- -- 71
2018-02-16 12:00:00 15.1 7 Sur 13 Sur 0 -- -- 74
2018-02-16 11:00:00 12.1 3 Sudoeste 13 Sudoeste 0 -- -- 85
2018-02-16 10:00:00 9.7 0 Calma 4 Oeste 0 -- -- 98
2018-02-16 09:00:00 8.6 0 Calma 2 Sudoeste 0 -- -- 99
2018-02-16 08:00:00 8.3 0 Calma 3 Sudoeste 0 -- -- 100
2018-02-16 07:00:00 8.4 0 Calma 2 Oeste 0 -- -- 100
2018-02-16 06:00:00 8.5 0 Calma 4 Sudoeste 0 -- -- 99
2018-02-16 05:00:00 8.9 0 Calma 2 Oeste 0.2 -- -- 98
2018-02-16 04:00:00 9.2 0 Calma 3 Oeste 0 -- -- 97
2018-02-16 03:00:00 9.3 0 Calma 4 Noroeste 0 -- -- 96
2018-02-16 02:00:00 9.3 0 Calma 4 Oeste 0 -- -- 93
2018-02-16 01:00:00 9.8 0 Calma 6 Noroeste 0 -- -- 91
2018-02-16 00:00:00 10.7 0 Calma 13 Oeste 0 -- -- 87
2018-02-15 23:00:00 10.6 3 Sur 7 Sur 0 -- -- 86
2018-02-15 22:00:00 11.4 3 Sudoeste 14 Sur 0 -- -- 83
2018-02-15 21:00:00 12.3 6 Sudoeste 14 Sudoeste 0 -- -- 80
2018-02-15 20:00:00 12.6 8 Oeste 20 Oeste 0 -- -- 78
2018-02-15 19:00:00 12 6 Oeste 14 Sudoeste 0 -- -- 81
2018-02-15 18:00:00 12.9 8 Sudoeste 14 Sudoeste 0 -- -- 78
2018-02-15 17:00:00 13.9 6 Oeste 15 Sudoeste 0 -- -- 75
2018-02-15 16:00:00 13.6 8 Sudoeste 16 Sudoeste 0 -- -- 75
2018-02-15 15:00:00 13.6 5 Sudoeste 14 Sudoeste 0 -- -- 78
2018-02-15 14:00:00 13.4 8 Sudoeste 27 Sur 0 -- -- 76
2018-02-15 13:00:00 14.2 10 Sudoeste 20 Sudoeste 0 -- -- 74
2018-02-15 12:00:00 12.2 7 Oeste 18 Oeste 0 -- -- 80
2018-02-15 11:00:00 11.2 8 Oeste 15 Sudoeste 0 -- -- 83
2018-02-15 10:00:00 10.2 9 Oeste 15 Oeste 0 -- -- 90
2018-02-15 09:00:00 7 0 Calma 4 Oeste 0 -- -- 100
2018-02-15 08:00:00 6.7 3 Oeste 9 Oeste 0 -- -- 100
2018-02-15 07:00:00 6 0 Calma 4 Sur 0 -- -- 100
2018-02-15 06:00:00 5.3 0 Calma 3 Sur 0 -- -- 100
2018-02-15 05:00:00 5.7 0 Calma 2 Sur 0 -- -- 100
2018-02-15 04:00:00 5.1 0 Calma 2 Sur 0 -- -- 100
2018-02-15 03:00:00 5 0 Calma 2 Sudeste 0 -- -- 100
2018-02-15 02:00:00 5.1 0 Calma 2 Sudeste 0 -- -- 100
2018-02-15 01:00:00 5.4 0 Calma 2 Sur 0 -- -- 100
2018-02-15 00:00:00 5.6 0 Calma 3 Sur 0 -- -- 100
2018-02-14 23:00:00 6 0 Calma 2 Sur 0 -- -- 100
2018-02-14 22:00:00 6.5 0 Calma 4 Sudeste 0 -- -- 100
2018-02-14 21:00:00 6.3 0 Calma 2 Sudoeste 0 -- -- 100
2018-02-14 20:00:00 6.6 0 Calma 3 Sudoeste 0 -- -- 100
2018-02-14 19:00:00 7.1 0 Calma 4 Sudoeste 0 -- -- 100
2018-02-14 18:00:00 7 0 Calma 3 Sudoeste 0 -- -- 100
2018-02-14 17:00:00 7.3 0 Calma 5 Sudoeste 0 -- -- 100
2018-02-14 16:00:00 7.7 0 Calma 3 Sudoeste 1.6 -- -- 100
2018-02-14 15:00:00 8 0 Calma 9 Sudoeste 2.2 -- -- 99
2018-02-14 14:00:00 7.8 0 Calma 12 Oeste 0.6 -- -- 99
2018-02-14 13:00:00 7 5 Oeste 12 Oeste 1.2 -- -- 99
2018-02-14 12:00:00 6.6 0 Calma 6 Oeste 0.6 -- -- 100
2018-02-14 11:00:00 5.9 4 Sudoeste 10 Sudoeste 0.4 -- -- 100
2018-02-14 10:00:00 4.8 0 Calma 9 Sudoeste 1 -- -- 100
2018-02-14 09:00:00 4 0 Calma 3 Sudoeste 0.4 -- -- 100
2018-02-14 08:00:00 3.1 0 Calma 2 Oeste 0.2 -- -- 100
2018-02-14 07:00:00 3 0 Calma 2 Sudoeste 0 -- -- 100
2018-02-14 06:00:00 2.9 0 Calma 2 Oeste 0.4 -- -- 100
2018-02-14 05:00:00 2.9 0 Calma 2 Sudoeste 1 -- -- 100
2018-02-14 04:00:00 2.9 0 Calma 2 Oeste 0.8 -- -- 100
2018-02-14 03:00:00 3.1 0 Calma 8 Sudoeste 0 -- -- 100
2018-02-14 02:00:00 2.7 0 Calma 8 Sudoeste 0 -- -- 100
2018-02-14 01:00:00 2.5 0 Calma 5 Sur 0 -- -- 100
2018-02-14 00:00:00 3 0 Calma 12 Sudoeste 0.2 -- -- 100
2018-02-13 23:00:00 3.2 0 Calma 12 Oeste 0 -- -- 100
2018-02-13 22:00:00 2.7 2 Oeste 8 Sudoeste 1 -- -- 100
2018-02-13 21:00:00 2.7 0 Calma 5 Oeste 1.4 -- -- 100
2018-02-13 20:00:00 2.8 0 Calma 5 Oeste 2 -- -- 99
2018-02-13 19:00:00 3.3 2 Noroeste 21 Sudoeste 2.6 -- -- 97
2018-02-13 18:00:00 4.3 8 Sudoeste 25 Oeste 0.6 -- -- 90
2018-02-13 17:00:00 4.5 8 Sudoeste 22 Sudoeste 0.2 -- -- 85
2018-02-13 16:00:00 5 6 Sudoeste 23 Oeste 0.2 -- -- 77
2018-02-13 15:00:00 4.9 9 Oeste 28 Sudoeste 0 -- -- 77
2018-02-13 14:00:00 4.5 10 Sudoeste 36 Sur 0 -- -- 77
2018-02-13 13:00:00 4.4 20 Sudoeste 33 Sudoeste 0 -- -- 75
2018-02-13 12:00:00 4.4 10 Sudoeste 30 Sudoeste 0 -- -- 73
2018-02-13 11:00:00 3.3 13 Oeste 39 Sur 0 -- -- 79
2018-02-13 10:00:00 3.9 19 Sudoeste 35 Sudoeste 0 -- -- 68
2018-02-13 09:00:00 3.5 14 Sudoeste 33 Sudoeste 0 -- -- 64
2018-02-13 08:00:00 3.2 14 Sudoeste 30 Sudoeste 0 -- -- 62
2018-02-13 07:00:00 1.6 6 Sudoeste 31 Sudoeste 0 -- -- 72
2018-02-13 06:00:00 0.9 10 Oeste 27 Sudoeste 0 -- -- 77
2018-02-13 05:00:00 0.9 8 Oeste 16 Noroeste 0 -- -- 77
2018-02-13 04:00:00 -0.2 6 Oeste 12 Oeste 0 -- -- 88
2018-02-13 03:00:00 -1.8 0 Calma 2 Norte 0 -- -- 100
2018-02-13 02:00:00 -1.9 0 Calma 2 Oeste 0 -- -- 100
2018-02-13 01:00:00 -1.6 0 Calma 2 Noroeste 0 -- -- 100
2018-02-13 00:00:00 -1.2 0 Calma 2 Noroeste 0 -- -- 100
2018-02-12 23:00:00 -1 0 Calma 2 Noroeste 0 -- -- 100
2018-02-12 22:00:00 -0.3 0 Calma 3 Noroeste 0 -- -- 98
2018-02-12 21:00:00 0.2 0 Calma 3 Norte 0 -- -- 98
2018-02-12 20:00:00 0.8 0 Calma 5 Norte 0 -- -- 96
2018-02-12 19:00:00 1.2 0 Calma 2 Norte 0 -- -- 92
2018-02-12 18:00:00 2.3 0 Calma 11 Noroeste 0 -- -- 88
2018-02-12 17:00:00 3.2 0 Calma 13 Oeste 0 -- -- 86
2018-02-12 16:00:00 4.3 4 Sudoeste 18 Oeste 0 -- -- 81
2018-02-12 15:00:00 4.9 8 Noroeste 19 Noroeste 0 -- -- 80
2018-02-12 14:00:00 4.6 3 Noroeste 6 Sudoeste 0.2 -- -- 81
2018-02-12 13:00:00 -- 3 Nordeste 7 Nordeste 0 -- -- --
2018-02-12 12:00:00 2.4 0 Calma 5 Norte 0.6 -- -- 100
2018-02-12 11:00:00 1.3 0 Calma 4 Sur 0.4 -- -- 100
2018-02-12 10:00:00 0.9 0 Calma 4 Sur 0 -- -- 100
2018-02-12 09:00:00 0.5 0 Calma 3 Sudeste 1.8 -- -- 100
2018-02-12 08:00:00 0.7 0 Calma 5 Sur 0.6 -- -- 100
2018-02-12 07:00:00 1.1 5 Sur 14 Noroeste 2.2 -- -- 98
2018-02-12 06:00:00 2.4 2 Este 11 Sudeste 0.6 -- -- 100
2018-02-12 05:00:00 2.7 6 Sur 14 Sur 0.4 -- -- 100
2018-02-12 04:00:00 2.9 4 Noroeste 22 Norte 2 -- -- 97
2018-02-12 03:00:00 3.3 2 Sudeste 25 Noroeste 1.6 -- -- 99
2018-02-12 02:00:00 3.9 8 Noroeste 22 Nordeste 1.4 -- -- 93
2018-02-12 01:00:00 4.3 8 Norte 21 Noroeste 0.8 -- -- 94
2018-02-12 00:00:00 4.5 5 Norte 27 Noroeste 0 -- -- 93
2018-02-11 23:00:00 4.9 8 Noroeste 24 Norte 0 -- -- 93
2018-02-11 22:00:00 5.4 8 Oeste 32 Oeste 0.4 -- -- 95
2018-02-11 21:00:00 5.6 7 Sudoeste 31 Oeste 0.4 -- -- 99
2018-02-11 20:00:00 6.1 6 Sudoeste 18 Sudoeste 1.4 -- -- 100
2018-02-11 19:00:00 6.4 4 Sudoeste 21 Oeste 0.4 -- -- 100
2018-02-11 18:00:00 6.4 4 Sudoeste 10 Oeste 1.4 -- -- 100
2018-02-11 17:00:00 7.5 3 Sudoeste 17 Norte 2.2 -- -- 100
2018-02-11 16:00:00 8.2 3 Sudoeste 12 Sur 0.2 -- -- 100
2018-02-11 15:00:00 7.7 2 Sudeste 8 Noroeste 1.4 -- -- 100
2018-02-11 14:00:00 7.2 0 Calma 5 Noroeste 0 -- -- 100
2018-02-11 13:00:00 6.3 0 Calma 8 Oeste 0.6 -- -- 100
2018-02-11 12:00:00 6.5 0 Calma 3 Oeste 2.2 -- -- 100
2018-02-11 11:00:00 5.7 0 Calma 3 Oeste 1 -- -- 100
2018-02-11 10:00:00 4.9 0 Calma 3 Noroeste 1.4 -- -- 100
2018-02-11 09:00:00 4.5 0 Calma 4 Noroeste 2.6 -- -- 100
2018-02-11 08:00:00 4.4 0 Calma 3 Norte 2.4 -- -- 100
2018-02-11 07:00:00 3.8 0 Calma 3 Norte 1.4 -- -- 100
2018-02-11 06:00:00 3.1 0 Calma 2 Norte 2 -- -- 100
2018-02-11 05:00:00 2.8 0 Calma 2 Norte 1.2 -- -- 100
2018-02-11 04:00:00 2.6 0 Calma 2 Norte 1.6 -- -- 100
2018-02-11 03:00:00 2.4 0 Calma 0 Calma 1 -- -- 100
2018-02-11 02:00:00 2.1 0 Calma 2 Norte 0.6 -- -- 100
2018-02-11 01:00:00 2 0 Calma 2 Norte 0 -- -- 100
2018-02-11 00:00:00 2.1 0 Calma 2 Norte 0.6 -- -- 100
2018-02-10 23:00:00 2.1 0 Calma 0 Calma 0.4 -- -- 100
2018-02-10 22:00:00 2.3 0 Calma 0 Calma 0.2 -- -- 100
2018-02-10 21:00:00 2.5 0 Calma 3 Norte 0.2 -- -- 99
2018-02-10 20:00:00 2.7 0 Calma 4 Norte 0 -- -- 98
2018-02-10 19:00:00 3.1 0 Calma 5 Norte 0 -- -- 95
2018-02-10 18:00:00 3.7 0 Calma 14 Oeste 0 -- -- 90
2018-02-10 17:00:00 4.4 3 Oeste 8 Noroeste 0 -- -- 86
2018-02-10 16:00:00 4.4 2 Sudeste 7 Sudeste 0 -- -- 91
2018-02-10 15:00:00 4 2 Sudoeste 4 Sudoeste 0 -- -- 95
2018-02-10 14:00:00 2.8 0 Calma 5 Sudoeste 0.2 -- -- 98
2018-02-10 13:00:00 3.1 0 Calma 4 Sudeste 0 -- -- 97
2018-02-10 12:00:00 2.1 0 Calma 7 Sudeste 0.4 -- -- 100
2018-02-10 11:00:00 1.3 0 Calma 9 Nordeste 0.2 -- -- 100
2018-02-10 10:00:00 0.5 0 Calma 10 Este 1.4 -- -- 100
2018-02-10 09:00:00 0.9 4 Este 13 Este 1 -- -- 100
2018-02-10 08:00:00 0.8 2 Este 14 Este 1 -- -- 100
2018-02-10 07:00:00 1.2 5 Este 16 Nordeste 0.4 -- -- 97
2018-02-10 06:00:00 1.5 3 Norte 19 Nordeste 0.2 -- -- 97
2018-02-10 05:00:00 2.2 3 Sudoeste 15 Este 0.2 -- -- 95
2018-02-10 04:00:00 2.1 4 Este 19 Nordeste 0 -- -- 95
2018-02-10 03:00:00 2 0 Calma 14 Nordeste 0 -- -- 96
2018-02-10 02:00:00 1.3 4 Este 14 Este 0 -- -- 100
2018-02-10 01:00:00 0.9 0 Calma 8 Este 1 -- -- 100
2018-02-10 00:00:00 1.4 2 Norte 10 Sur 0.4 -- -- 100
2018-02-09 23:00:00 1.5 0 Calma 13 Este 1.4 -- -- 100
2018-02-09 22:00:00 2.1 4 Sur 12 Sur 0.2 -- -- 94
2018-02-09 21:00:00 2.3 2 Norte 20 Sur 0.4 -- -- 95
2018-02-09 20:00:00 2.5 3 Sudoeste 15 Sudeste 1.4 -- -- 99
2018-02-09 19:00:00 2.6 4 Sur 19 Sudeste 2.4 -- -- 100
2018-02-09 18:00:00 2.8 5 Este 30 Noroeste 3 -- -- 100
2018-02-09 17:00:00 2 5 Oeste 14 Sudeste 3 -- -- 100
2018-02-09 16:00:00 2.4 0 Calma 4 Noroeste 2.4 -- -- 99
2018-02-09 15:00:00 3 0 Calma 4 Noroeste 1.2 -- -- 93
2018-02-09 14:00:00 3.8 0 Calma 6 Oeste 0 -- -- 84
2018-02-09 13:00:00 3.6 0 Calma 12 Sur 0 -- -- 80
2018-02-09 12:00:00 2.4 2 Sur 5 Sur 0 -- -- 85
2018-02-09 11:00:00 0.9 0 Calma 2 Sudoeste 0 -- -- 96
2018-02-09 10:00:00 -0.8 0 Calma 0 Calma 0 -- -- 100
2018-02-09 09:00:00 -2.4 0 Calma -- -- 0 -- -- 100
2018-02-09 08:00:00 -3 0 Calma -- -- 0 -- -- 100
2018-02-09 07:00:00 -3.3 0 Calma -- -- 0 -- -- 100
2018-02-09 06:00:00 -3.9 0 Calma -- -- 0 -- -- 100
2018-02-09 05:00:00 -4.1 0 Calma 0 Calma 0 -- -- 100
2018-02-09 04:00:00 -4 0 Calma 0 Calma 0 -- -- 100
2018-02-09 03:00:00 -3.7 0 Calma 3 Sudoeste 0 -- -- 100
2018-02-09 02:00:00 -3.7 0 Calma 2 Sudoeste 0 -- -- 100
2018-02-09 01:00:00 -3.5 0 Calma -- -- 0 -- -- 100
2018-02-09 00:00:00 -3.1 0 Calma 0 Calma 0 -- -- 100
2018-02-08 23:00:00 -2.6 0 Calma 2 Sudoeste 0 -- -- 100
2018-02-08 22:00:00 -2 0 Calma 3 Oeste 0 -- -- 100
2018-02-08 21:00:00 -1.4 0 Calma 2 Oeste 0 -- -- 100
2018-02-08 20:00:00 -0.7 0 Calma 3 Oeste 0 -- -- 99
2018-02-08 19:00:00 0.6 0 Calma 6 Noroeste 0 -- -- 95
2018-02-08 18:00:00 1.8 0 Calma 5 Noroeste 0 -- -- 83
2018-02-08 17:00:00 1.8 0 Calma 6 Noroeste 0 -- -- 88
2018-02-08 16:00:00 1.6 0 Calma 9 Este 0 -- -- 90
2018-02-08 15:00:00 1.6 0 Calma 9 Noroeste 0 -- -- 89
2018-02-08 14:00:00 1.8 2 Norte 6 Sudeste 0 -- -- 88
2018-02-08 13:00:00 1.3 2 Este 7 Este 0 -- -- 94
2018-02-08 12:00:00 0.9 0 Calma 3 Noroeste 0 -- -- 96
2018-02-08 11:00:00 0.5 0 Calma -- -- 0 -- -- 99
2018-02-08 10:00:00 0.1 0 Calma -- -- 0 -- -- 100
2018-02-08 09:00:00 -0.2 0 Calma -- -- 0 -- -- 100
2018-02-08 08:00:00 -0.3 0 Calma -- -- 0.2 -- -- 100
2018-02-08 07:00:00 -0.3 0 Calma -- -- 0 -- -- 100
2018-02-08 06:00:00 -0.1 0 Calma -- -- 1 -- -- 100
2018-02-08 05:00:00 -0.2 0 Calma -- -- 0 -- -- 100
2018-02-08 04:00:00 -0.1 0 Calma -- -- 0.6 -- -- 100
2018-02-08 03:00:00 -0.3 0 Calma -- -- 1.2 -- -- 100
2018-02-08 02:00:00 0.2 0 Calma 8 Oeste 0.6 -- -- 100
2018-02-08 01:00:00 0 0 Calma 8 Este 0.4 -- -- 100
2018-02-08 00:00:00 -0.1 2 Sudoeste 5 Sudoeste 0.6 -- -- 100
2018-02-07 23:00:00 -0.3 0 Calma 4 Este 0.6 -- -- 100
2018-02-07 22:00:00 -0.3 0 Calma 8 Nordeste 0 -- -- 97
2018-02-07 21:00:00 -0.2 2 Norte 13 Nordeste 0 -- -- 95
2018-02-07 20:00:00 -0.3 0 Calma 12 Sudeste 0 -- -- 100
2018-02-07 19:00:00 0 0 Calma 12 Este 0.8 -- -- 100
2018-02-07 18:00:00 0.2 2 Este 13 Sudeste 1.8 -- -- 100
2018-02-07 17:00:00 1.4 3 Noroeste 10 Este 0 -- -- 92
2018-02-07 16:00:00 1.4 2 Sur 8 Sudoeste 0 -- -- 94
2018-02-07 15:00:00 1 3 Sur 12 Este 0.2 -- -- 92
2018-02-07 14:00:00 2.8 3 Sudoeste 10 Oeste 0 -- -- 77
2018-02-07 13:00:00 3 3 Este 6 Este 0 -- -- 76
2018-02-07 12:00:00 2.1 0 Calma 11 Nordeste 0 -- -- 83
2018-02-07 11:00:00 0.2 0 Calma 5 Este 0 -- -- 93
2018-02-07 10:00:00 -0.4 0 Calma -- -- 0 -- -- 99
2018-02-07 09:00:00 -0.9 0 Calma -- -- 0 -- -- 100
2018-02-07 08:00:00 -0.9 0 Calma -- -- 0 -- -- 100
2018-02-07 07:00:00 -0.9 0 Calma -- -- 0 -- -- 100
2018-02-07 06:00:00 -0.8 0 Calma -- -- 0 -- -- 100
2018-02-07 05:00:00 -0.7 0 Calma -- -- 0 -- -- 100
2018-02-07 04:00:00 -0.5 0 Calma -- -- 0 -- -- 100
2018-02-07 03:00:00 -0.2 0 Calma 0 Calma 1.4 -- -- 100
2018-02-07 02:00:00 -0.4 0 Calma -- -- 0.2 -- -- 100
2018-02-07 01:00:00 -0.2 0 Calma -- -- 0.2 -- -- 100
2018-02-07 00:00:00 0 0 Calma 4 Noroeste 0.6 -- -- 100
2018-02-06 23:00:00 0.2 0 Calma 6 Noroeste 1.2 -- -- 100
2018-02-06 22:00:00 0.3 0 Calma 9 Nordeste 0 -- -- 99
2018-02-06 21:00:00 0.3 0 Calma 8 Este 0.4 -- -- 100
2018-02-06 20:00:00 0.5 0 Calma 13 Este 0 -- -- 97
2018-02-06 19:00:00 0.5 3 Este 14 Este 0 -- -- 100
2018-02-06 18:00:00 0.5 3 Sudoeste 11 Nordeste 0.8 -- -- 98
2018-02-06 17:00:00 0.6 2 Este 11 Nordeste 1.2 -- -- 98
2018-02-06 16:00:00 0.8 3 Sudeste 15 Nordeste 1.2 -- -- 97
2018-02-06 15:00:00 2.3 5 Este 12 Nordeste 0 -- -- 90
2018-02-06 14:00:00 1.8 0 Calma 17 Noroeste 0 -- -- 87
2018-02-06 13:00:00 2.7 2 Sudoeste 17 Nordeste 0 -- -- 77
2018-02-06 12:00:00 2.6 4 Nordeste 14 Nordeste 0 -- -- 73
2018-02-06 11:00:00 2.6 4 Nordeste 10 Este 0 -- -- 73
2018-02-06 10:00:00 1.1 3 Este 9 Nordeste 0 -- -- 81
2018-02-06 09:00:00 0.2 4 Noroeste 18 Nordeste 0 -- -- 83
2018-02-06 08:00:00 0.4 5 Oeste 21 Nordeste 0 -- -- 85
2018-02-06 07:00:00 0.1 2 Nordeste 10 Nordeste 0 -- -- 94
2018-02-06 06:00:00 0.2 2 Nordeste 14 Nordeste 0 -- -- 96
2018-02-06 05:00:00 0.2 3 Nordeste 20 Nordeste 0 -- -- 97
2018-02-06 04:00:00 0.4 5 Este 21 Este 0.4 -- -- 100
2018-02-06 03:00:00 0.6 3 Sur 17 Este 0.6 -- -- 100
2018-02-06 02:00:00 0.8 5 Este 21 Este 0.6 -- -- 100
2018-02-06 01:00:00 1.2 6 Este 21 Este 0.4 -- -- 100
2018-02-06 00:00:00 1.1 3 Sur 8 Nordeste 0.8 -- -- 100
2018-02-05 23:00:00 1.5 4 Nordeste 13 Este 0 -- -- 100
2018-02-05 22:00:00 1.3 0 Calma 8 Sudeste 0 -- -- 100
2018-02-05 21:00:00 1.2 0 Calma 5 Este 0 -- -- 100
2018-02-05 20:00:00 0.9 0 Calma 4 Este 0 -- -- 100
2018-02-05 19:00:00 0.9 0 Calma 5 Este 0.4 -- -- 100
2018-02-05 18:00:00 1.1 0 Calma 5 Este 0.8 -- -- 100
2018-02-05 17:00:00 1.1 2 Este 9 Este 0.6 -- -- 100
2018-02-05 16:00:00 1.2 0 Calma 11 Este 1 -- -- 100
2018-02-05 15:00:00 1.3 3 Este 15 Norte 1.4 -- -- 100
2018-02-05 14:00:00 1.8 5 Este 14 Nordeste 0.4 -- -- 100
2018-02-05 13:00:00 1.8 2 Nordeste 15 Nordeste 0.2 -- -- 100
2018-02-05 12:00:00 1.8 5 Nordeste 15 Norte 0.4 -- -- 100
2018-02-05 11:00:00 1.6 0 Calma 13 Nordeste 0.4 -- -- 100
2018-02-05 10:00:00 1.5 3 Este 12 Nordeste 0.2 -- -- 100
2018-02-05 09:00:00 1.7 5 Nordeste 15 Nordeste 0 -- -- 100
2018-02-05 08:00:00 1.9 0 Calma 13 Este 0 -- -- 100
2018-02-05 07:00:00 -- 4 Este 13 Este 0 -- -- --
2018-02-05 06:00:00 1.8 3 Nordeste 9 Norte 0.2 -- -- 100
2018-02-05 05:00:00 1.6 0 Calma 8 Norte 0.2 -- -- 100
2018-02-05 04:00:00 1 0 Calma 4 Nordeste 0.8 -- -- 100
2018-02-05 03:00:00 1.2 0 Calma 5 Este 0.8 -- -- 100
2018-02-05 02:00:00 1.5 0 Calma 12 Este 0.4 -- -- 100
2018-02-05 01:00:00 1.8 0 Calma 13 Nordeste 0.4 -- -- 100
2018-02-05 00:00:00 1.8 2 Norte 4 Norte 0 -- -- 100
2018-02-04 23:00:00 1.6 0 Calma 2 Norte 0 -- -- 100
2018-02-04 22:00:00 1.5 0 Calma 3 Noroeste 0 -- -- 100
2018-02-04 21:00:00 1.7 0 Calma 2 Noroeste 0.2 -- -- 100
2018-02-04 20:00:00 1.8 0 Calma 6 Noroeste 0 -- -- 100
2018-02-04 19:00:00 1.5 0 Calma 4 Norte 0 -- -- 100
2018-02-04 18:00:00 2.1 2 Nordeste 6 Norte 0.8 -- -- 100
2018-02-04 17:00:00 2.6 0 Calma 5 Nordeste 1.6 -- -- 99
2018-02-04 16:00:00 3.2 2 Nordeste 8 Este 1.2 -- -- 99
2018-02-04 15:00:00 3.8 0 Calma 4 Norte 0.8 -- -- 98
2018-02-04 14:00:00 4.1 0 Calma 5 Norte 0 -- -- 98
2018-02-04 13:00:00 3.2 0 Calma 2 Norte 0 -- -- 100
2018-02-04 12:00:00 2.8 0 Calma 4 Norte 0.2 -- -- 100
2018-02-04 11:00:00 1.6 0 Calma 2 Norte 0.8 -- -- 100
2018-02-04 10:00:00 1.3 0 Calma 2 Norte 0.2 -- -- 100
2018-02-04 09:00:00 0.7 0 Calma 2 Norte 0 -- -- 100
2018-02-04 08:00:00 0.5 0 Calma 4 Norte 0 -- -- 100
2018-02-04 07:00:00 0.3 0 Calma 2 Norte 0.2 -- -- 100
2018-02-04 06:00:00 0.4 0 Calma 2 Norte 0.8 -- -- 100
2018-02-04 05:00:00 0.7 0 Calma 3 Norte 0 -- -- 100
2018-02-04 04:00:00 0.5 0 Calma 3 Norte 0.2 -- -- 100
2018-02-04 03:00:00 0.4 0 Calma 3 Norte 0.4 -- -- 100
2018-02-04 02:00:00 0.5 0 Calma 6 Nordeste 1.2 -- -- 100
2018-02-04 01:00:00 0.8 0 Calma 6 Oeste 2.2 -- -- 100
2018-02-04 00:00:00 1.6 2 Sudoeste 9 Oeste 1.2 -- -- 100
2018-02-03 23:00:00 1.8 2 Sur 9 Norte 3.2 -- -- 99
2018-02-03 22:00:00 2.7 3 Norte 12 Oeste 2.2 -- -- 98
2018-02-03 21:00:00 3.2 4 Noroeste 24 Oeste 3.2 -- -- 95
2018-02-03 20:00:00 3.6 5 Sudoeste 27 Noroeste 2.6 -- -- 94
2018-02-03 19:00:00 4.1 6 Sudoeste 26 Oeste 4 -- -- 95
2018-02-03 18:00:00 4.4 3 Sudoeste 18 Sur 3 -- -- 98
2018-02-03 17:00:00 4.3 6 Noroeste 30 Oeste 2.6 -- -- 97
2018-02-03 16:00:00 4.4 9 Oeste 24 Sudoeste 1.6 -- -- 96
2018-02-03 15:00:00 3.7 6 Oeste 17 Sur 1.8 -- -- 99
2018-02-03 14:00:00 3.3 0 Calma 7 Sur 1.4 -- -- 99
2018-02-03 13:00:00 2.9 4 Sudoeste 15 Sur 1.2 -- -- 97
2018-02-03 12:00:00 2.6 6 Sudoeste 17 Sudoeste 0.6 -- -- 99
2018-02-03 11:00:00 2.2 6 Sudoeste 12 Sudoeste 0.4 -- -- 100
2018-02-03 10:00:00 0.9 0 Calma 5 Norte 0.8 -- -- 100
2018-02-03 09:00:00 1 0 Calma 9 Noroeste 0.4 -- -- 100
2018-02-03 08:00:00 0.4 0 Calma 6 Sur 1.4 -- -- 100
2018-02-03 07:00:00 0.5 0 Calma 8 Oeste 2.2 -- -- 100
2018-02-03 06:00:00 0.7 0 Calma 6 Oeste 0 -- -- 100
2018-02-03 05:00:00 0.3 0 Calma 5 Oeste 1.2 -- -- 100
2018-02-03 04:00:00 0.3 0 Calma 4 Oeste 0.8 -- -- 100
2018-02-03 03:00:00 0.4 0 Calma 7 Sur 0.6 -- -- 100
2018-02-03 02:00:00 0.2 0 Calma 4 Noroeste 3.4 -- -- 100
2018-02-03 01:00:00 0.5 0 Calma 6 Sur 1.2 -- -- 100
2018-02-03 00:00:00 0.4 2 Oeste 5 Sudoeste 1 -- -- 100
2018-02-02 23:00:00 0.4 0 Calma -- -- 0.2 -- -- 100
2018-02-02 22:00:00 0.3 0 Calma 12 Oeste 2.4 -- -- 100
2018-02-02 21:00:00 0.3 0 Calma 4 Norte 3.4 -- -- 100
2018-02-02 20:00:00 0.4 0 Calma 6 Este 0.6 -- -- 100
2018-02-02 19:00:00 0.4 0 Calma 5 Nordeste 1.6 -- -- 100
2018-02-02 18:00:00 1.1 2 Nordeste 3 Este 0 -- -- 100
2018-02-02 17:00:00 1.1 3 Nordeste 6 Nordeste 0 -- -- 100
2018-02-02 16:00:00 1.6 2 Nordeste 5 Nordeste 0.2 -- -- 99
2018-02-02 15:00:00 1.4 2 Nordeste 10 Nordeste 0.6 -- -- 97
2018-02-02 14:00:00 2.4 2 Norte 8 Noroeste 0 -- -- 93
2018-02-02 13:00:00 2.9 0 Calma 2 Nordeste 0 -- -- 99
2018-02-02 12:00:00 0.9 0 Calma 5 Este 1.4 -- -- 100
2018-02-02 11:00:00 0.7 0 Calma 11 Nordeste 0.4 -- -- 100
2018-02-02 10:00:00 1.1 0 Calma 0 Calma 0 -- -- 100
2018-02-02 09:00:00 0.4 0 Calma -- -- 0 -- -- 100
2018-02-02 08:00:00 0.2 0 Calma -- -- 0.4 -- -- 100
2018-02-02 07:00:00 0.1 0 Calma -- -- 0.4 -- -- 100
2018-02-02 06:00:00 0 0 Calma -- -- 0 -- -- 100
2018-02-02 05:00:00 0 0 Calma -- -- 0 -- -- 100
2018-02-02 04:00:00 0 0 Calma -- -- 1 -- -- 100
2018-02-02 03:00:00 0.2 0 Calma -- -- 3.2 -- -- 100
2018-02-02 02:00:00 0.2 0 Calma -- -- 2 -- -- 100
2018-02-02 01:00:00 0.1 0 Calma -- -- 0.2 -- -- 100
2018-02-02 00:00:00 0.1 0 Calma -- -- 0.8 -- -- 100
2018-02-01 23:00:00 0.3 0 Calma 4 Nordeste 2.6 -- -- 100
2018-02-01 22:00:00 0.2 0 Calma 4 Sudeste 2.6 -- -- 100
2018-02-01 21:00:00 0.2 0 Calma 4 Este 1.4 -- -- 100
2018-02-01 20:00:00 0.3 0 Calma 3 Noroeste 1.2 -- -- 100
2018-02-01 19:00:00 0.3 0 Calma 2 Noroeste 1 -- -- 100
2018-02-01 18:00:00 0.6 0 Calma 5 Oeste 1 -- -- 100
2018-02-01 17:00:00 0.8 0 Calma 6 Sudeste 1.6 -- -- 100
2018-02-01 16:00:00 0.6 0 Calma 10 Sudoeste 3.2 -- -- 100
2018-02-01 15:00:00 1.7 5 Sudoeste 12 Sudoeste 0.6 -- -- 100
2018-02-01 14:00:00 0.8 0 Calma 4 Sudoeste 3.8 -- -- 100
2018-02-01 13:00:00 1.7 0 Calma 6 Sudoeste 3 -- -- 97
2018-02-01 12:00:00 3.5 7 Este 26 Sur 1 -- -- 93
2018-02-01 11:00:00 4.6 6 Noroeste 26 Noroeste 1.4 -- -- 93
2018-02-01 10:00:00 4.6 3 Este 19 Noroeste 1 -- -- 95
2018-02-01 09:00:00 5.1 4 Sudoeste 18 Noroeste 0.6 -- -- 94
2018-02-01 08:00:00 5.2 5 Oeste 21 Noroeste 0.8 -- -- 95
2018-02-01 07:00:00 5.4 6 Sur 25 Noroeste 0.6 -- -- 95
2018-02-01 06:00:00 6.2 3 Sudoeste 17 Oeste 1.2 -- -- 97
2018-02-01 05:00:00 7 4 Oeste 18 Noroeste 1 -- -- 98
2018-02-01 04:00:00 6.9 2 Sur 21 Sudoeste 0 -- -- 100
2018-02-01 03:00:00 6 0 Calma 5 Nordeste 0 -- -- 100
2018-02-01 02:00:00 5.6 0 Calma 4 Nordeste 1.2 -- -- 100
2018-02-01 01:00:00 5.2 0 Calma 2 Norte 0.4 -- -- 100
2018-02-01 00:00:00 5.2 0 Calma 6 Norte 0 -- -- 100
2018-01-31 23:00:00 5.4 0 Calma 3 Nordeste 0 -- -- 100
2018-01-31 22:00:00 5.4 0 Calma 3 Este 0 -- -- 99
2018-01-31 21:00:00 5.4 0 Calma 9 Nordeste 0 -- -- 99
2018-01-31 20:00:00 5.2 3 Nordeste 10 Este 0 -- -- 96
2018-01-31 19:00:00 6.5 0 Calma 9 Nordeste 0 -- -- 89
2018-01-31 18:00:00 8.9 2 Nordeste 14 Nordeste 0 -- -- 80
2018-01-31 17:00:00 14.8 3 Sudoeste 10 Sudoeste 0 -- -- 40
2018-01-31 16:00:00 14.9 6 Sudoeste 15 Sudoeste 0 -- -- 45
2018-01-31 15:00:00 14.7 6 Sudoeste 18 Sudoeste 0 -- -- 49
2018-01-31 14:00:00 13.8 8 Sur 20 Sudeste 0 -- -- 53
2018-01-31 13:00:00 12.5 8 Sudoeste 18 Sudoeste 0 -- -- 57
2018-01-31 12:00:00 11.4 10 Sudoeste 23 Sudoeste 0 -- -- 61
2018-01-31 11:00:00 10 8 Oeste 17 Oeste 0 -- -- 63
2018-01-31 10:00:00 7.8 7 Oeste 13 Oeste 0 -- -- 72
2018-01-31 09:00:00 4.6 0 Calma 5 Oeste 0 -- -- 87
2018-01-31 08:00:00 4.9 0 Calma 7 Noroeste 0 -- -- 86
2018-01-31 07:00:00 6.6 3 Oeste 10 Oeste 0 -- -- 79
2018-01-31 06:00:00 6.6 3 Noroeste 12 Noroeste 0 -- -- 79
2018-01-31 05:00:00 5 0 Calma 3 Oeste 0 -- -- 85
2018-01-31 04:00:00 5.7 3 Noroeste 13 Noroeste 0 -- -- 84
2018-01-31 03:00:00 3.5 2 Noroeste 8 Noroeste 0 -- -- 98
2018-01-31 02:00:00 2.6 0 Calma 4 Sudoeste 0 -- -- 100
2018-01-31 01:00:00 2.2 0 Calma 2 Sudoeste 0 -- -- 100
2018-01-31 00:00:00 2.4 0 Calma 2 Oeste 0 -- -- 100
2018-01-30 23:00:00 2.7 0 Calma 2 Oeste 0 -- -- 100
2018-01-30 22:00:00 3.3 0 Calma 2 Oeste 0 -- -- 99
2018-01-30 21:00:00 4 0 Calma 3 Oeste 0 -- -- 97
2018-01-30 20:00:00 4.8 0 Calma 2 Sudoeste 0 -- -- 95
2018-01-30 19:00:00 6.1 0 Calma 2 Sudoeste 0 -- -- 90
2018-01-30 18:00:00 8.4 0 Calma 2 Sudoeste 0 -- -- 82
2018-01-30 17:00:00 11.2 0 Calma 12 Nordeste 0 -- -- 71
2018-01-30 16:00:00 11.2 3 Nordeste 12 Nordeste 0 -- -- 72
2018-01-30 15:00:00 10.7 3 Nordeste 11 Nordeste 0 -- -- 74
2018-01-30 14:00:00 9.4 2 Sur 9 Sudoeste 0 -- -- 79
2018-01-30 13:00:00 7.2 3 Sur 8 Sur 0 -- -- 90
2018-01-30 12:00:00 4.9 3 Sur 6 Sur 0 -- -- 100
2018-01-30 11:00:00 2.8 2 Sur 5 Sur 0 -- -- 100
2018-01-30 10:00:00 2.4 0 Calma 4 Sudeste 0 -- -- 100
2018-01-30 09:00:00 2.5 0 Calma 6 Sur 0 -- -- 100
2018-01-30 08:00:00 2.7 3 Este 6 Norte 0 -- -- 100
2018-01-30 07:00:00 2.8 0 Calma 3 Norte 0 -- -- 100
2018-01-30 06:00:00 2.6 0 Calma 2 Norte 0 -- -- 100
2018-01-30 05:00:00 2.5 0 Calma 2 Nordeste 0 -- -- 100
2018-01-30 04:00:00 2.4 0 Calma 3 Norte 0 -- -- 100
2018-01-30 03:00:00 1.7 0 Calma 3 Nordeste 0 -- -- 100
2018-01-30 02:00:00 1.3 0 Calma -- -- 0 -- -- 100
2018-01-30 01:00:00 1.6 0 Calma -- -- 0 -- -- 99
2018-01-30 00:00:00 2.2 0 Calma 2 Norte 0 -- -- 97
2018-01-29 23:00:00 2.7 0 Calma 0 Calma 0 -- -- 96
2018-01-29 22:00:00 3.4 0 Calma 0 Calma 0 -- -- 92
2018-01-29 21:00:00 4.2 0 Calma 2 Nordeste 0 -- -- 89
2018-01-29 20:00:00 5.4 0 Calma 2 Nordeste 0 -- -- 84
2018-01-29 19:00:00 7 0 Calma 3 Nordeste 0 -- -- 77
2018-01-29 18:00:00 9.3 2 Norte 12 Noroeste 0 -- -- 67
2018-01-29 17:00:00 12.2 5 Norte 14 Oeste 0 -- -- 60
2018-01-29 16:00:00 13.4 6 Norte 19 Noroeste 0 -- -- 61
2018-01-29 15:00:00 14.9 6 Noroeste 13 Noroeste 0 -- -- 53
2018-01-29 14:00:00 15.2 4 Sudeste 10 Sur 0 -- -- 54
2018-01-29 13:00:00 13.8 4 Sur 6 Sur 0 -- -- 63
2018-01-29 12:00:00 10.8 0 Calma 3 Este 0 -- -- 72
2018-01-29 11:00:00 7.7 0 Calma 3 Este 0 -- -- 87
2018-01-29 10:00:00 4.1 0 Calma 2 Este 0 -- -- 98
2018-01-29 09:00:00 3.2 0 Calma 2 Nordeste 0 -- -- 97
2018-01-29 08:00:00 2.8 0 Calma 0 Calma 0 -- -- 96
2018-01-29 07:00:00 3.1 0 Calma 2 Nordeste 0 -- -- 97
2018-01-29 06:00:00 3.1 0 Calma 0 Calma 0 -- -- 96
2018-01-29 05:00:00 2.9 0 Calma 0 Calma 0 -- -- 96
2018-01-29 04:00:00 3 0 Calma 0 Calma 0 -- -- 95
2018-01-29 03:00:00 3 0 Calma 2 Nordeste 0 -- -- 94
2018-01-29 02:00:00 2.5 0 Calma 0 Calma 0 -- -- 94
2018-01-29 01:00:00 2.3 0 Calma 2 Nordeste 0 -- -- 95
2018-01-29 00:00:00 2.4 0 Calma 2 Este 0 -- -- 96
2018-01-28 23:00:00 2.4 0 Calma 3 Este 0 -- -- 98
2018-01-28 22:00:00 2.4 0 Calma 0 Calma 0 -- -- 98
2018-01-28 21:00:00 3.2 0 Calma 2 Nordeste 0 -- -- 96
2018-01-28 20:00:00 4.1 0 Calma 2 Este 0 -- -- 95
2018-01-28 19:00:00 5.4 0 Calma 4 Este 0 -- -- 90
2018-01-28 18:00:00 7.9 0 Calma 8 Este 0 -- -- 80
2018-01-28 17:00:00 10.5 4 Nordeste 9 Nordeste 0 -- -- 68
2018-01-28 16:00:00 10.8 3 Nordeste 14 Nordeste 0 -- -- 67
2018-01-28 15:00:00 10.8 4 Nordeste 13 Este 0 -- -- 69
2018-01-28 14:00:00 10.9 3 Nordeste 7 Nordeste 0 -- -- 66
2018-01-28 13:00:00 9.6 3 Nordeste 6 Nordeste 0 -- -- 61
2018-01-28 12:00:00 6.6 2 Este 5 Este 0 -- -- 83
2018-01-28 11:00:00 3.3 0 Calma 2 Norte 0 -- -- 100
2018-01-28 10:00:00 0.3 0 Calma 2 Nordeste 0 -- -- 100
2018-01-28 09:00:00 -0.7 0 Calma 0 Calma 0 -- -- 100
2018-01-28 08:00:00 -0.5 0 Calma 0 Calma 0 -- -- 100
2018-01-28 07:00:00 -0.6 0 Calma 0 Calma 0 -- -- 100
2018-01-28 06:00:00 -0.4 0 Calma 2 Norte 0 -- -- 100
2018-01-28 05:00:00 -0.1 0 Calma 2 Norte 0 -- -- 100
2018-01-28 04:00:00 0.2 0 Calma 2 Norte 0 -- -- 100
2018-01-28 03:00:00 0.6 0 Calma 2 Este 0 -- -- 100
2018-01-28 02:00:00 1.2 0 Calma 2 Este 0 -- -- 100
2018-01-28 01:00:00 2 0 Calma 3 Norte 0 -- -- 99
2018-01-28 00:00:00 2.9 0 Calma 2 Nordeste 0 -- -- 97
2018-01-27 23:00:00 3.6 0 Calma 3 Norte 0 -- -- 96
2018-01-27 22:00:00 4.1 0 Calma 12 Norte 0 -- -- 94
2018-01-27 21:00:00 4.4 0 Calma 8 Noroeste 0 -- -- 92
2018-01-27 20:00:00 4.6 2 Este 12 Nordeste 0 -- -- 90
2018-01-27 19:00:00 4.9 3 Norte 15 Noroeste 0 -- -- 87
2018-01-27 18:00:00 5.2 3 Sudeste 23 Norte 0 -- -- 84
2018-01-27 17:00:00 5.7 6 Norte 18 Este 0 -- -- 80
2018-01-27 16:00:00 5.8 4 Este 22 Nordeste 0 -- -- 88
2018-01-27 15:00:00 5.6 5 Nordeste 17 Nordeste 0.2 -- -- 93
2018-01-27 14:00:00 5.4 7 Este 21 Nordeste 0 -- -- 89
2018-01-27 13:00:00 5.2 5 Este 19 Este 0 -- -- 90
2018-01-27 12:00:00 4.4 3 Este 16 Nordeste 0 -- -- 97
2018-01-27 11:00:00 3.7 4 Sudeste 17 Noroeste 0.8 -- -- 97
2018-01-27 10:00:00 4 4 Nordeste 15 Nordeste 0 -- -- 97
2018-01-27 09:00:00 -- 4 Este 13 Nordeste 0.4 -- -- --
2018-01-27 08:00:00 3.3 4 Este 14 Este 0.2 -- -- 99
2018-01-27 07:00:00 3.3 4 Este 16 Este 0.8 -- -- 100
2018-01-27 06:00:00 3.3 2 Este 13 Oeste 1.8 -- -- 100
2018-01-27 05:00:00 3.4 0 Calma 14 Oeste 2 -- -- 100
2018-01-27 04:00:00 3.5 3 Este 21 Sur 2.8 -- -- 100
2018-01-27 03:00:00 3.7 3 Este 30 Este 2.8 -- -- 99
2018-01-27 02:00:00 4.7 5 Este 33 Nordeste 0.4 -- -- 96
2018-01-27 01:00:00 4.1 7 Este 22 Este 2.6 -- -- 98
2018-01-27 00:00:00 4.7 9 Nordeste 35 Nordeste 2.2 -- -- 98
2018-01-26 23:00:00 4.3 5 Sudeste 35 Nordeste 4.6 -- -- 98
2018-01-26 22:00:00 4.3 8 Este 27 Este 2 -- -- 100
2018-01-26 21:00:00 3.1 2 Sudeste 27 Noroeste 8 -- -- 99
2018-01-26 20:00:00 4.9 6 Este 26 Este 0.2 -- -- 94
2018-01-26 19:00:00 4.5 7 Este 21 Este 2 -- -- 98
2018-01-26 18:00:00 4.5 3 Sur 19 Este 1 -- -- 98
2018-01-26 17:00:00 5.7 6 Sur 14 Sudoeste 0 -- -- 95
2018-01-26 16:00:00 4.3 4 Sur 11 Noroeste 1.2 -- -- 99
2018-01-26 15:00:00 3.8 4 Sudeste 20 Nordeste 3.8 -- -- 98
2018-01-26 14:00:00 6.3 5 Este 15 Este 0.2 -- -- 96
2018-01-26 13:00:00 5.3 5 Sur 21 Sudoeste 0.4 -- -- 96
2018-01-26 12:00:00 4.3 3 Este 12 Sur 0.4 -- -- 100
2018-01-26 11:00:00 2.8 2 Sudoeste 17 Noroeste 7 -- -- 98
2018-01-26 10:00:00 4.7 7 Sudoeste 22 Sur 2 -- -- 95
2018-01-26 09:00:00 4.6 4 Sudeste 16 Sur 0.4 -- -- 100
2018-01-26 08:00:00 3.9 2 Sudoeste 21 Oeste 3.2 -- -- 98
2018-01-26 07:00:00 4.4 6 Noroeste 21 Noroeste 0.4 -- -- 96
2018-01-26 06:00:00 4.3 4 Sudoeste 16 Noroeste 0.8 -- -- 99
2018-01-26 05:00:00 4.2 0 Calma 13 Nordeste 1.2 -- -- 99
2018-01-26 04:00:00 4.8 3 Sur 17 Oeste 0.4 -- -- 97
2018-01-26 03:00:00 4.6 2 Oeste 11 Nordeste 0 -- -- 100
2018-01-26 02:00:00 4 0 Calma 6 Sudeste 0.8 -- -- 100
2018-01-26 01:00:00 3.8 3 Oeste 14 Oeste 1.8 -- -- 100
2018-01-26 00:00:00 4 0 Calma 10 Noroeste 0 -- -- 100
2018-01-25 23:00:00 3.8 0 Calma 8 Oeste 0.4 -- -- 100
2018-01-25 22:00:00 3.8 4 Sur 15 Norte 1.6 -- -- 97
2018-01-25 21:00:00 4.2 6 Noroeste 13 Noroeste 1.2 -- -- 97
2018-01-25 20:00:00 4.3 2 Sudoeste 13 Noroeste 2.2 -- -- 96
2018-01-25 19:00:00 4.8 4 Noroeste 17 Noroeste 2 -- -- 94
2018-01-25 18:00:00 5.7 7 Noroeste 20 Noroeste 1.8 -- -- 91
2018-01-25 17:00:00 6.9 0 Calma 3 Nordeste 1.8 -- -- 99
2018-01-25 16:00:00 7.1 0 Calma 9 Noroeste 1.8 -- -- 95
2018-01-25 15:00:00 7.5 0 Calma 9 Sudoeste 3.2 -- -- 97
2018-01-25 14:00:00 7.8 5 Sudoeste 16 Sur 2.4 -- -- 90
2018-01-25 13:00:00 8.6 4 Oeste 31 Sudoeste 0.6 -- -- 84
2018-01-25 12:00:00 9.2 19 Sudoeste 42 Sur 0 -- -- 74
2018-01-25 11:00:00 9.1 22 Sur 41 Sur 0 -- -- 78
2018-01-25 10:00:00 9 5 Noroeste 36 Oeste 0 -- -- 79
2018-01-25 09:00:00 8.6 17 Sudoeste 37 Sudoeste 0 -- -- 84
2018-01-25 08:00:00 8.6 14 Sur 33 Sudoeste 0 -- -- 84
2018-01-25 07:00:00 9 20 Sur 47 Sudoeste 0 -- -- 82
2018-01-25 06:00:00 9.2 9 Sudoeste 24 Sudoeste 0 -- -- 81
2018-01-25 05:00:00 9.3 14 Sudoeste 32 Oeste 0 -- -- 79
2018-01-25 04:00:00 8.6 3 Sudoeste 17 Sudeste 0 -- -- 84
2018-01-25 03:00:00 9.5 2 Sudoeste 19 Sur 0 -- -- 79
2018-01-25 02:00:00 9.6 6 Sur 31 Sur 0 -- -- 81
2018-01-25 01:00:00 9.7 6 Sur 33 Sudeste 0 -- -- 83
2018-01-25 00:00:00 9.9 11 Sur 37 Sudoeste 0 -- -- 85
2018-01-24 23:00:00 10.3 12 Sur 32 Sur 0 -- -- 84
2018-01-24 22:00:00 10.4 13 Sur 33 Sudoeste 0 -- -- 83
2018-01-24 21:00:00 10.8 15 Sur 32 Sur 0 -- -- 79
2018-01-24 20:00:00 11.2 17 Sur 31 Sur 0 -- -- 76
2018-01-24 19:00:00 11.2 14 Sudoeste 42 Sur 0 -- -- 75
2018-01-24 18:00:00 12 16 Sur 35 Sur 0 -- -- 70
2018-01-24 17:00:00 13.5 16 Sur 37 Sudoeste 0 -- -- 63
2018-01-24 16:00:00 14.1 18 Sudoeste 39 Sur 0 -- -- 65
2018-01-24 15:00:00 13.7 19 Sur 46 Sur 0 -- -- 66
2018-01-24 14:00:00 13 23 Sur 50 Sur 0 -- -- 74
2018-01-24 13:00:00 12.1 23 Sur 50 Sur 0 -- -- 77
2018-01-24 12:00:00 12 15 Sur 39 Sur 0 -- -- 77
2018-01-24 11:00:00 11.3 13 Sur 41 Sur 0 -- -- 80
2018-01-24 10:00:00 9.8 18 Sur 56 Sur 0 -- -- 84
2018-01-24 09:00:00 9.7 36 Sur 61 Sur 0 -- -- 85
2018-01-24 08:00:00 9.3 33 Sur 54 Sur 0 -- -- 87
2018-01-24 07:00:00 9.8 35 Sudoeste 57 Sur 0 -- -- 84
2018-01-24 06:00:00 9.9 32 Sudoeste 55 Sudoeste 0 -- -- 82
2018-01-24 05:00:00 9.3 13 Oeste 28 Sudoeste 0 -- -- 85
2018-01-24 04:00:00 8.5 4 Sur 26 Sudoeste 0 -- -- 90
2018-01-24 03:00:00 6.3 0 Calma 5 Sudoeste 0 -- -- 100
2018-01-24 02:00:00 7.5 2 Sudoeste 7 Noroeste 0 -- -- 99
2018-01-24 01:00:00 8.6 0 Calma 4 Noroeste 0 -- -- 100
2018-01-24 00:00:00 8.8 0 Calma 5 Norte 0 -- -- 100
2018-01-23 23:00:00 8.6 0 Calma 3 Norte 0 -- -- 100
2018-01-23 22:00:00 8.4 0 Calma 5 Este 0 -- -- 100
2018-01-23 21:00:00 8.8 2 Nordeste 5 Nordeste 0 -- -- 100
2018-01-23 20:00:00 10 0 Calma 5 Nordeste 0 -- -- 100
2018-01-23 19:00:00 10.5 0 Calma 4 Nordeste 0 -- -- 99
2018-01-23 18:00:00 10.8 0 Calma 4 Nordeste 0 -- -- 98
2018-01-23 17:00:00 11.1 0 Calma 7 Nordeste 0 -- -- 97
2018-01-23 16:00:00 11.1 0 Calma 5 Nordeste 0 -- -- 97
2018-01-23 15:00:00 11.1 0 Calma 12 Este 0 -- -- 99
2018-01-23 14:00:00 11.6 3 Nordeste 6 Nordeste 0.2 -- -- 100
2018-01-23 13:00:00 11.1 3 Este 8 Nordeste 0 -- -- 100
2018-01-23 12:00:00 10.8 0 Calma 5 Nordeste 0 -- -- 100
2018-01-23 11:00:00 10.7 0 Calma 6 Este 0 -- -- 100
2018-01-23 10:00:00 10.2 2 Este 4 Este 0 -- -- 100
2018-01-23 09:00:00 9.8 0 Calma 4 Este 0 -- -- 100
2018-01-23 08:00:00 9.9 0 Calma 3 Este 0 -- -- 100
2018-01-23 07:00:00 9.9 0 Calma 4 Este 0 -- -- 100
2018-01-23 06:00:00 9.8 0 Calma 2 Este 0 -- -- 100
2018-01-23 05:00:00 9.8 0 Calma 3 Este 0 -- -- 100
2018-01-23 04:00:00 9.9 0 Calma 3 Este 0 -- -- 100
2018-01-23 03:00:00 9.9 0 Calma 3 Este 0 -- -- 100
2018-01-23 02:00:00 9.9 0 Calma 3 Nordeste 0 -- -- 100
2018-01-23 01:00:00 9.9 0 Calma 4 Sudeste 0 -- -- 100
2018-01-23 00:00:00 9.9 0 Calma 4 Este 0 -- -- 100